Time;durP1;ratioP1;P1;durP2;ratioP2;P2;SDS_P1;SDS_P2;PMS_P1;PMS_P2;Temp;Humidity;BMP_temperature;BMP_pressure;BME280_temperature;BME280_humidity;BME280_pressure;Samples;Min_cycle;Max_cycle;Signal;HPM_P1;HPM_P2
2021/10/11 00:01:46;;;;;;;24.93;13.27;;;;;;;9.62;75.24;102115.16;6118561;23;20504;-60
2021/10/11 00:04:12;;;;;;;21.00;13.50;;;;;;;9.83;75.99;102139.34;6118843;23;20563;-59
2021/10/11 00:06:38;;;;;;;21.97;13.53;;;;;;;10.00;76.92;102138.63;6119755;23;20574;-60
2021/10/11 00:09:04;;;;;;;19.00;12.57;;;;;;;9.79;77.10;102105.34;6119834;23;20169;-60
2021/10/11 00:11:30;;;;;;;20.60;12.53;;;;;;;9.99;75.79;102132.28;6118731;23;20154;-59
2021/10/11 00:13:55;;;;;;;17.77;12.60;;;;;;;10.00;76.36;102138.63;6119477;23;20166;-59
2021/10/11 00:16:21;;;;;;;19.23;11.93;;;;;;;10.03;76.49;102126.75;6119003;23;20620;-59
2021/10/11 00:18:46;;;;;;;22.73;12.27;;;;;;;9.99;76.57;102129.50;6120125;23;20156;-60
2021/10/11 00:21:13;;;;;;;22.20;13.00;;;;;;;10.06;76.00;102126.81;6118478;23;20158;-59
2021/10/11 00:23:39;;;;;;;19.43;13.10;;;;;;;9.89;76.10;102088.75;6119748;23;20189;-59
2021/10/11 00:26:04;;;;;;;21.73;13.00;;;;;;;10.14;75.46;102122.06;6119191;23;20159;-60
2021/10/11 00:28:30;;;;;;;24.00;12.43;;;;;;;10.24;75.34;102115.75;6120181;23;20154;-59
2021/10/11 00:30:55;;;;;;;23.47;12.80;;;;;;;10.16;75.26;102103.88;6119291;23;20704;-59
2021/10/11 00:33:21;;;;;;;17.67;12.43;;;;;;;10.31;74.37;102108.22;6118923;23;20380;-60
2021/10/11 00:35:46;;;;;;;26.50;12.80;;;;;;;10.21;74.54;102111.81;6119528;23;20161;-59
2021/10/11 00:38:12;;;;;;;21.17;12.53;;;;;;;10.12;74.62;102082.88;6118175;23;20229;-60
2021/10/11 00:40:38;;;;;;;19.63;12.47;;;;;;;10.13;75.12;102073.38;6119709;23;20166;-60
2021/10/11 00:43:03;;;;;;;19.70;11.70;;;;;;;10.29;74.16;102090.41;6117032;23;20331;-60
2021/10/11 00:45:29;;;;;;;20.47;12.20;;;;;;;10.28;73.80;102103.47;6119626;23;20160;-60
2021/10/11 00:47:54;;;;;;;21.90;12.83;;;;;;;10.40;74.33;102094.00;6121142;23;20157;-60
2021/10/11 00:50:20;;;;;;;18.57;11.57;;;;;;;10.48;72.89;102095.56;6121991;23;20165;-59
2021/10/11 00:52:46;;;;;;;19.87;11.50;;;;;;;10.39;72.16;102089.63;6120566;23;20157;-60
2021/10/11 00:55:12;;;;;;;19.23;11.77;;;;;;;10.28;71.90;102058.34;6116989;23;20624;-59
2021/10/11 00:57:37;;;;;;;19.07;11.63;;;;;;;10.45;71.76;102088.06;6118374;23;20191;-61
2021/10/11 01:00:05;;;;;;;17.43;11.80;;;;;;;10.45;72.63;102079.75;6121566;23;20152;-59
2021/10/11 01:02:30;;;;;;;22.13;12.40;;;;;;;10.35;72.89;102092.38;6116097;23;20196;-60
2021/10/11 01:04:56;;;;;;;18.63;12.33;;;;;;;10.45;73.20;102093.59;6120581;23;20153;-59
2021/10/11 01:07:22;;;;;;;17.57;11.97;;;;;;;10.39;72.86;102092.38;6121326;23;20777;-60
2021/10/11 01:09:47;;;;;;;18.37;11.53;;;;;;;9.69;72.86;101995.38;6121807;23;20158;-60
2021/10/11 01:12:13;;;;;;;18.77;11.77;;;;;;;10.26;72.30;102089.22;6119281;23;20613;-60
2021/10/11 01:14:38;;;;;;;16.67;11.53;;;;;;;10.21;72.17;102080.53;6120842;23;20154;-60
2021/10/11 01:17:04;;;;;;;16.93;11.07;;;;;;;10.22;71.94;102080.13;6120716;23;20583;-60
2021/10/11 01:19:29;;;;;;;17.73;11.03;;;;;;;10.26;72.09;102080.13;6119796;23;20165;-60
2021/10/11 01:21:55;;;;;;;20.20;11.53;;;;;;;9.99;70.82;102070.59;6121120;23;20270;-60
2021/10/11 01:24:20;;;;;;;17.63;11.47;;;;;;;10.04;71.69;102059.91;6120641;23;20213;-60
2021/10/11 01:26:46;;;;;;;19.30;12.23;;;;;;;9.96;70.85;102068.59;6121074;23;20153;-60
2021/10/11 01:29:15;;;;;;;19.63;10.90;;;;;;;9.56;70.24;102014.34;6120609;23;20152;-59
2021/10/11 01:31:42;;;;;;;19.03;10.87;;;;;;;9.67;69.47;102042.03;6118828;23;20595;-60
2021/10/11 01:34:09;;;;;;;19.97;12.13;;;;;;;9.62;70.63;102036.88;6116555;23;20694;-59
2021/10/11 01:36:35;;;;;;;12.17;8.87;;;;;;;9.52;70.44;102037.63;6120253;23;20163;-59
2021/10/11 01:39:03;;;;;;;19.27;12.50;;;;;;;9.62;70.57;102045.97;6119700;23;20158;-59
2021/10/11 01:41:28;;;;;;;19.63;13.13;;;;;;;9.52;69.95;102034.84;6121287;23;20155;-59
2021/10/11 01:43:54;;;;;;;22.60;12.90;;;;;;;9.44;71.22;102030.50;6120809;23;20161;-59
2021/10/11 01:46:19;;;;;;;16.07;11.33;;;;;;;9.56;70.06;102039.25;6120583;23;20167;-59
2021/10/11 01:48:45;;;;;;;21.53;12.40;;;;;;;9.58;70.31;102036.09;6121647;23;20156;-60
2021/10/11 01:51:11;;;;;;;20.57;12.17;;;;;;;9.62;71.30;102028.56;6120279;23;20162;-60
2021/10/11 01:53:37;;;;;;;17.73;11.70;;;;;;;9.45;70.54;102018.25;6120257;23;20163;-60
2021/10/11 01:56:02;;;;;;;19.40;11.43;;;;;;;9.25;70.22;101986.56;6119834;23;20511;-59
2021/10/11 01:58:28;;;;;;;18.83;11.97;;;;;;;9.42;71.03;102028.13;6120799;23;20726;-60
2021/10/11 02:00:55;;;;;;;20.67;12.30;;;;;;;9.31;71.33;102016.22;6120434;23;20240;-59
2021/10/11 02:03:20;;;;;;;20.23;11.60;;;;;;;9.21;71.40;101974.69;6120286;23;20182;-59
2021/10/11 02:05:45;;;;;;;19.00;10.37;;;;;;;9.62;69.99;102031.31;6120399;23;20156;-60
2021/10/11 02:08:11;;;;;;;19.03;10.70;;;;;;;9.69;70.97;102020.28;6120906;23;20161;-59
2021/10/11 02:10:37;;;;;;;16.07;11.13;;;;;;;9.72;71.84;102020.28;6120854;23;20172;-60
2021/10/11 02:13:02;;;;;;;18.13;10.87;;;;;;;9.76;71.03;101996.19;6120197;23;20193;-60
2021/10/11 02:15:28;;;;;;;18.13;10.33;;;;;;;9.99;70.80;102009.66;6120920;23;20146;-59
2021/10/11 02:17:53;;;;;;;15.47;10.90;;;;;;;10.06;71.50;102004.94;6119678;23;20192;-59
2021/10/11 02:20:19;;;;;;;17.20;11.13;;;;;;;10.10;70.84;101994.63;6120959;23;20153;-59
2021/10/11 02:22:45;;;;;;;22.70;11.57;;;;;;;10.24;71.56;102011.25;6120654;23;20158;-59
2021/10/11 02:25:11;;;;;;;18.77;11.20;;;;;;;10.14;71.15;101969.72;6119990;23;20166;-60
2021/10/11 02:27:37;;;;;;;16.03;11.13;;;;;;;10.38;72.05;101994.63;6120130;23;20216;-58
2021/10/11 02:30:05;;;;;;;16.57;11.07;;;;;;;10.48;72.80;102006.88;6120599;23;20672;-60
2021/10/11 02:32:30;;;;;;;14.57;10.60;;;;;;;10.49;72.50;102000.13;6120144;23;20623;-60
2021/10/11 02:34:56;;;;;;;15.63;10.70;;;;;;;10.61;72.33;102002.50;6119896;23;20239;-59
2021/10/11 02:37:21;;;;;;;14.73;10.53;;;;;;;10.65;72.67;102000.53;6119811;23;20201;-59
2021/10/11 02:39:47;;;;;;;13.80;10.03;;;;;;;10.70;72.87;102002.84;6120550;23;20164;-59
2021/10/11 02:42:13;;;;;;;15.50;10.57;;;;;;;10.74;73.04;101995.31;6119796;23;20158;-61
2021/10/11 02:44:38;;;;;;;18.07;9.60;;;;;;;10.78;72.89;102005.22;6112795;23;20157;-60
2021/10/11 02:47:04;;;;;;;15.90;9.70;;;;;;;10.83;72.43;102004.03;6120227;23;20182;-59
2021/10/11 02:49:29;;;;;;;11.67;9.03;;;;;;;10.86;71.74;101998.47;6120467;23;20154;-60
2021/10/11 02:51:54;;;;;;;13.70;10.03;;;;;;;10.89;71.65;101989.34;6120218;23;20185;-59
2021/10/11 02:54:20;;;;;;;15.70;9.87;;;;;;;10.90;71.71;101988.16;6120272;23;20161;-60
2021/10/11 02:56:46;;;;;;;15.30;9.77;;;;;;;10.94;71.70;101994.47;6120046;23;20209;-59
2021/10/11 02:59:11;;;;;;;12.57;9.17;;;;;;;10.96;71.77;101983.00;6116352;23;20160;-60
2021/10/11 03:01:37;;;;;;;13.47;9.20;;;;;;;10.93;71.71;101981.00;6119546;23;20225;-60
2021/10/11 03:04:02;;;;;;;17.00;10.20;;;;;;;10.94;71.76;101982.59;6119412;23;20154;-60
2021/10/11 03:06:28;;;;;;;15.20;9.90;;;;;;;10.94;71.84;101980.63;6119701;23;20197;-59
2021/10/11 03:08:53;;;;;;;12.37;9.50;;;;;;;10.83;71.44;101954.09;6119521;23;20168;-60
2021/10/11 03:11:19;;;;;;;15.63;9.43;;;;;;;10.87;71.50;101966.75;6119526;23;20618;-60
2021/10/11 03:13:44;;;;;;;14.50;9.40;;;;;;;10.97;71.62;101985.34;6119579;23;20188;-60
2021/10/11 03:16:10;;;;;;;14.43;9.50;;;;;;;11.01;71.85;101980.56;6118899;23;20241;-60
2021/10/11 03:18:37;;;;;;;15.63;9.67;;;;;;;10.87;71.86;101950.09;6120023;23;20186;-60
2021/10/11 03:21:03;;;;;;;13.47;8.53;;;;;;;11.06;71.41;101976.59;6118376;23;20165;-60
2021/10/11 03:23:28;;;;;;;15.23;9.43;;;;;;;11.06;71.18;101979.38;6119676;23;20155;-60
2021/10/11 03:25:54;;;;;;;14.93;9.87;;;;;;;10.97;71.18;101957.59;6117729;23;20168;-60
2021/10/11 03:28:19;;;;;;;13.07;9.07;;;;;;;11.06;71.23;101977.38;6119699;23;20153;-61
2021/10/11 03:30:45;;;;;;;12.77;9.30;;;;;;;11.05;71.52;101970.25;6120086;23;20212;-60
2021/10/11 03:33:11;;;;;;;15.47;9.37;;;;;;;11.05;71.93;101975.81;6119224;23;20164;-60
2021/10/11 03:35:36;;;;;;;14.87;9.07;;;;;;;10.92;72.23;101962.78;6119295;23;20152;-60
2021/10/11 03:38:02;;;;;;;17.80;9.83;;;;;;;10.94;72.53;101958.41;6119843;23;20215;-61
2021/10/11 03:40:28;;;;;;;14.37;9.87;;;;;;;11.03;72.36;101964.34;6120189;23;20159;-60
2021/10/11 03:42:53;;;;;;;11.97;9.60;;;;;;;10.88;71.61;101932.31;6118295;23;20180;-60
2021/10/11 03:45:19;;;;;;;16.53;9.17;;;;;;;11.04;71.05;101952.03;6120221;23;20617;-60
2021/10/11 03:47:44;;;;;;;12.73;8.87;;;;;;;11.09;71.43;101962.72;6119182;23;20581;-61
2021/10/11 03:50:10;;;;;;;15.93;9.57;;;;;;;10.88;71.58;101931.50;6120001;23;21004;-58
2021/10/11 03:52:36;;;;;;;13.87;9.03;;;;;;;11.11;72.00;101956.75;6117962;23;20205;-60
2021/10/11 03:55:01;;;;;;;15.00;9.13;;;;;;;11.12;71.87;101958.34;6119294;23;20684;-61
2021/10/11 03:57:27;;;;;;;14.90;9.20;;;;;;;11.10;71.58;101953.19;6118716;23;20184;-61
2021/10/11 03:59:52;;;;;;;14.67;9.50;;;;;;;10.91;71.41;101928.72;6117878;23;20447;-60
2021/10/11 04:02:18;;;;;;;15.40;9.87;;;;;;;11.11;71.35;101951.19;6116656;23;20146;-60
2021/10/11 04:04:43;;;;;;;14.57;9.73;;;;;;;11.10;71.60;101949.63;6119544;23;20555;-60
2021/10/11 04:07:12;;;;;;;14.93;9.63;;;;;;;10.95;72.08;101925.91;6120288;23;20600;-60
2021/10/11 04:09:39;;;;;;;13.83;9.93;;;;;;;11.10;71.75;101939.31;6120727;23;20153;-60
2021/10/11 04:12:07;;;;;;;14.23;9.90;;;;;;;10.96;72.07;101925.50;6116855;23;20521;-60
2021/10/11 04:14:33;;;;;;;14.20;9.57;;;;;;;11.10;72.34;101938.53;6119908;23;20612;-57
2021/10/11 04:16:59;;;;;;;14.00;9.20;;;;;;;10.50;72.04;101840.97;6120458;23;20645;-60
2021/10/11 04:19:25;;;;;;;11.47;9.57;;;;;;;11.11;72.05;101931.78;6120788;23;20165;-61
2021/10/11 04:21:50;;;;;;;17.37;10.83;;;;;;;11.07;72.19;101931.03;6120513;23;20158;-60
2021/10/11 04:24:15;;;;;;;15.40;9.53;;;;;;;10.87;72.06;101900.19;6121728;23;20186;-60
2021/10/11 04:26:41;;;;;;;14.00;9.67;;;;;;;10.95;72.29;101921.16;6121439;23;20157;-61
2021/10/11 04:29:06;;;;;;;18.07;10.10;;;;;;;10.99;72.49;101924.72;6120451;23;20687;-60
2021/10/11 04:31:32;;;;;;;16.60;9.83;;;;;;;11.00;71.80;101919.94;6119619;23;20208;-59
2021/10/11 04:33:57;;;;;;;15.77;9.43;;;;;;;10.96;71.68;101916.41;6121073;23;20158;-60
2021/10/11 04:36:25;;;;;;;17.87;11.43;;;;;;;11.03;71.93;101922.72;6121437;23;20161;-60
2021/10/11 04:38:50;;;;;;;15.63;11.37;;;;;;;11.04;71.57;101923.50;6121783;23;20182;-60
2021/10/11 04:41:16;;;;;;;18.40;13.07;;;;;;;10.96;71.92;101913.66;6120553;23;20228;-59
2021/10/11 04:43:42;;;;;;;16.63;11.63;;;;;;;11.06;72.15;101927.44;6118700;23;20237;-61
2021/10/11 04:46:07;;;;;;;15.63;10.43;;;;;;;11.06;71.96;101938.53;6119352;23;20162;-60
2021/10/11 04:48:33;;;;;;;16.17;9.73;;;;;;;11.08;72.04;101927.84;6120134;23;20156;-60
2021/10/11 04:50:58;;;;;;;18.60;12.67;;;;;;;11.01;71.69;101925.09;6120575;23;20164;-60
2021/10/11 04:53:24;;;;;;;15.63;10.90;;;;;;;11.10;71.93;101932.97;6109556;23;20190;-60
2021/10/11 04:55:49;;;;;;;20.63;12.17;;;;;;;11.11;72.16;101932.56;6108102;23;20545;-60
2021/10/11 04:58:15;;;;;;;17.00;11.33;;;;;;;11.09;71.97;101921.09;6108956;23;20208;-60
2021/10/11 05:00:40;;;;;;;14.70;10.03;;;;;;;11.04;71.73;101915.19;6112596;23;20164;-60
2021/10/11 05:03:06;;;;;;;13.80;10.60;;;;;;;11.11;71.18;101923.44;6112585;23;20661;-61
2021/10/11 05:05:32;;;;;;;19.57;11.47;;;;;;;11.07;71.89;101917.94;6113140;23;20150;-60
2021/10/11 05:07:59;;;;;;;18.33;10.90;;;;;;;11.14;71.69;101925.44;6108512;23;20162;-60
2021/10/11 05:10:25;;;;;;;14.77;10.33;;;;;;;11.11;72.18;101921.47;6112440;23;20158;-59
2021/10/11 05:12:50;;;;;;;16.90;11.50;;;;;;;10.97;71.95;101912.44;6112910;23;20161;-60
2021/10/11 05:15:16;;;;;;;14.93;10.10;;;;;;;11.08;72.20;101927.84;6105884;23;20158;-60
2021/10/11 05:17:41;;;;;;;16.70;11.83;;;;;;;11.10;72.24;101924.66;6111195;23;20265;-60
2021/10/11 05:20:08;;;;;;;16.63;10.60;;;;;;;10.68;72.04;101856.34;6116830;23;20193;-60
2021/10/11 05:22:33;;;;;;;15.73;8.83;;;;;;;10.95;68.76;101935.03;6113302;23;20684;-60
2021/10/11 05:24:59;;;;;;;15.47;8.77;;;;;;;10.08;67.90;101800.34;6118131;23;20234;-59
2021/10/11 05:27:24;;;;;;;17.50;8.37;;;;;;;10.59;67.12;101921.69;6118845;23;20160;-60
2021/10/11 05:29:50;;;;;;;14.47;9.27;;;;;;;10.54;68.56;101919.34;6116441;23;20205;-60
2021/10/11 05:32:16;;;;;;;14.50;8.93;;;;;;;10.44;66.35;101942.34;6107825;23;20184;-60
2021/10/11 05:34:41;;;;;;;16.80;10.10;;;;;;;10.31;68.01;101930.88;6118099;23;20159;-60
2021/10/11 05:37:07;;;;;;;17.90;10.57;;;;;;;10.32;68.20;101938.03;6118152;23;20185;-60
2021/10/11 05:39:32;;;;;;;19.43;10.50;;;;;;;10.31;68.18;101938.41;6114452;23;20207;-60
2021/10/11 05:41:58;;;;;;;16.20;10.63;;;;;;;10.18;68.63;101940.00;6110870;23;20642;-60
2021/10/11 05:44:23;;;;;;;16.20;9.67;;;;;;;10.02;67.95;101945.16;6116526;23;20168;-60
2021/10/11 05:46:49;;;;;;;19.80;11.30;;;;;;;10.12;69.30;101944.38;6117574;23;20149;-60
2021/10/11 05:49:15;;;;;;;19.33;11.33;;;;;;;10.09;70.35;101945.19;6116624;23;20493;-59
2021/10/11 05:51:41;;;;;;;23.70;11.87;;;;;;;9.76;69.58;101896.50;6118128;23;20612;-60
2021/10/11 05:54:06;;;;;;;24.83;12.17;;;;;;;9.79;70.67;101900.47;6116538;23;20157;-60
2021/10/11 05:56:32;;;;;;;22.90;12.60;;;;;;;10.08;70.42;101940.81;6115564;23;20186;-59
2021/10/11 05:58:57;;;;;;;24.83;12.97;;;;;;;9.94;70.28;101940.81;6117853;23;20638;-59
2021/10/11 06:01:23;;;;;;;20.47;12.47;;;;;;;9.82;70.19;101933.69;6107217;23;20208;-60
2021/10/11 06:03:48;;;;;;;20.07;12.87;;;;;;;9.83;71.68;101938.03;6116903;23;20158;-60
2021/10/11 06:06:14;;;;;;;18.93;11.10;;;;;;;9.74;71.07;101940.41;6117885;23;20171;-60
2021/10/11 06:08:39;;;;;;;16.87;11.00;;;;;;;9.39;70.93;101901.63;6117156;23;20158;-60
2021/10/11 06:11:05;;;;;;;13.00;8.90;;;;;;;9.54;70.67;101941.19;6116082;23;20156;-60
2021/10/11 06:13:30;;;;;;;17.50;11.13;;;;;;;9.48;72.35;101937.22;6114152;23;20172;-60
2021/10/11 06:15:56;;;;;;;20.33;10.47;;;;;;;9.21;72.08;101892.50;6107284;23;20150;-60
2021/10/11 06:18:21;;;;;;;17.87;10.83;;;;;;;9.55;72.11;101949.09;6118185;23;20185;-60
2021/10/11 06:20:47;;;;;;;18.73;10.77;;;;;;;9.45;71.58;101947.09;6116927;23;20558;-60
2021/10/11 06:23:13;;;;;;;18.07;10.87;;;;;;;9.45;72.31;101947.09;6115679;23;20560;-60
2021/10/11 06:25:40;;;;;;;19.17;11.07;;;;;;;9.35;72.45;101952.59;6117678;23;20184;-60
2021/10/11 06:28:05;;;;;;;15.30;9.70;;;;;;;9.33;72.13;101949.44;6106240;23;20661;-60
2021/10/11 06:30:31;;;;;;;14.27;10.47;;;;;;;9.34;72.60;101937.19;6113089;23;20257;-60
2021/10/11 06:32:56;;;;;;;15.80;9.77;;;;;;;9.29;72.64;101948.66;6115810;23;20650;-59
2021/10/11 06:35:22;;;;;;;18.30;10.33;;;;;;;9.16;73.37;101925.28;6113091;23;20158;-59
2021/10/11 06:37:49;;;;;;;16.53;9.70;;;;;;;9.30;73.26;101948.25;6116815;23;20180;-59
2021/10/11 06:40:15;;;;;;;18.40;11.13;;;;;;;9.31;73.69;101949.84;6115430;23;20248;-59
2021/10/11 06:42:40;;;;;;;15.17;7.83;;;;;;;9.26;73.99;101947.44;6114732;23;20167;-59
2021/10/11 06:45:06;;;;;;;17.03;11.07;;;;;;;9.34;74.34;101951.84;6115758;23;20497;-59
2021/10/11 06:47:32;;;;;;;16.00;11.27;;;;;;;9.46;74.11;101961.72;6116044;23;20165;-59
2021/10/11 06:49:57;;;;;;;18.50;11.50;;;;;;;9.48;74.23;101951.84;6114881;23;20179;-59
2021/10/11 06:52:23;;;;;;;18.73;11.40;;;;;;;9.25;73.88;101918.22;6115202;23;20175;-59
2021/10/11 06:54:48;;;;;;;17.07;11.13;;;;;;;9.42;74.29;101961.72;6116608;23;20169;-59
2021/10/11 06:57:13;;;;;;;20.80;12.27;;;;;;;9.41;74.89;101962.09;6115404;23;20176;-59
2021/10/11 06:59:41;;;;;;;18.40;11.93;;;;;;;9.46;74.96;101956.19;6118445;23;20440;-59
2021/10/11 07:02:06;;;;;;;18.77;11.67;;;;;;;9.53;75.04;101956.97;6118185;23;20152;-59
2021/10/11 07:04:33;;;;;;;20.30;11.27;;;;;;;9.44;73.86;101931.66;6118829;23;20155;-59
2021/10/11 07:06:58;;;;;;;17.23;12.47;;;;;;;9.69;74.04;101959.38;6116337;23;20161;-59
2021/10/11 07:09:24;;;;;;;17.43;12.27;;;;;;;9.72;74.93;101955.81;6114970;23;20186;-59
2021/10/11 07:11:50;;;;;;;16.13;10.40;;;;;;;9.84;74.21;101958.22;6116784;23;20608;-59
2021/10/11 07:14:18;;;;;;;14.63;11.63;;;;;;;9.59;74.38;101930.50;6115150;23;20549;-59
2021/10/11 07:16:45;;;;;;;19.30;12.00;;;;;;;9.66;73.92;101929.72;6115436;23;20158;-59
2021/10/11 07:19:11;;;;;;;21.00;12.90;;;;;;;9.97;74.26;101964.94;6116137;23;20162;-59
2021/10/11 07:21:36;;;;;;;15.97;10.67;;;;;;;10.02;74.29;101970.88;6115493;23;20518;-57
2021/10/11 07:24:02;;;;;;;16.30;9.80;;;;;;;9.77;74.64;101949.88;6118719;23;20155;-59
2021/10/11 07:26:28;;;;;;;16.67;10.33;;;;;;;9.71;74.39;101935.66;6118846;23;20174;-59
2021/10/11 07:28:53;;;;;;;12.50;9.40;;;;;;;9.71;75.12;101935.66;6116691;23;20159;-63
2021/10/11 07:31:18;;;;;;;14.57;9.27;;;;;;;9.95;74.89;101967.31;6117123;23;20520;-63
2021/10/11 07:33:45;;;;;;;15.90;9.73;;;;;;;10.03;74.83;101968.88;6117045;23;20193;-63
2021/10/11 07:36:11;;;;;;;14.40;9.60;;;;;;;10.06;74.55;101954.28;6115951;23;20160;-63
2021/10/11 07:38:36;;;;;;;15.40;9.60;;;;;;;10.09;74.38;101964.56;6118366;23;20526;-63
2021/10/11 07:41:02;;;;;;;16.00;9.20;;;;;;;9.90;73.88;101932.47;6114437;23;20159;-63
2021/10/11 07:43:28;;;;;;;17.00;10.43;;;;;;;10.13;74.42;101968.09;6114527;23;20240;-63
2021/10/11 07:45:53;;;;;;;13.63;9.43;;;;;;;10.14;74.10;101964.19;6115604;23;20231;-63
2021/10/11 07:48:19;;;;;;;14.40;9.40;;;;;;;10.16;73.82;101968.13;6115341;23;20149;-63
2021/10/11 07:50:44;;;;;;;16.13;9.50;;;;;;;10.22;73.12;101963.78;6116064;23;20163;-63
2021/10/11 07:53:13;;;;;;;14.07;9.13;;;;;;;10.14;72.80;101962.19;6114730;23;20788;-63
2021/10/11 07:55:39;;;;;;;16.27;9.90;;;;;;;10.16;73.13;101968.13;6115115;23;20176;-64
2021/10/11 07:58:04;;;;;;;13.00;9.23;;;;;;;10.00;72.99;101953.84;6115853;23;20663;-63
2021/10/11 08:00:30;;;;;;;18.50;11.03;;;;;;;10.11;73.39;101959.41;6117668;23;20501;-64
2021/10/11 08:02:55;;;;;;;18.37;10.43;;;;;;;10.05;73.24;101964.56;6118259;23;20185;-64
2021/10/11 08:05:21;;;;;;;16.40;11.33;;;;;;;9.93;73.00;101967.69;6118734;23;20162;-64
2021/10/11 08:07:46;;;;;;;19.13;11.63;;;;;;;10.03;73.72;101966.91;6118690;23;20231;-64
2021/10/11 08:10:12;;;;;;;17.43;10.87;;;;;;;9.87;73.67;101963.75;6117856;23;20606;-64
2021/10/11 08:12:38;;;;;;;17.63;11.07;;;;;;;9.98;73.83;101961.75;6115953;23;20415;-64
2021/10/11 08:15:06;;;;;;;20.10;12.10;;;;;;;9.98;74.31;101956.22;6116944;23;20399;-67
2021/10/11 08:17:31;;;;;;;17.40;11.23;;;;;;;10.17;74.08;101955.06;6117689;23;20983;-64
2021/10/11 08:19:57;;;;;;;19.70;12.50;;;;;;;9.99;74.33;101949.50;6117168;23;20189;-62
2021/10/11 08:22:23;;;;;;;16.47;10.93;;;;;;;9.85;74.01;101930.09;6118096;23;20158;-63
2021/10/11 08:24:51;;;;;;;16.40;11.80;;;;;;;10.06;74.36;101954.28;6118861;23;20153;-63
2021/10/11 08:27:17;;;;;;;17.00;11.43;;;;;;;10.20;74.19;101948.72;6117318;23;20169;-62
2021/10/11 08:29:51;;;;;;;15.87;11.40;;;;;;;10.19;73.75;101947.94;6118032;23;20208;-62
2021/10/11 08:32:22;;;;;;;16.27;11.60;;;;;;;10.38;74.77;101955.03;6117323;23;20684;-62
2021/10/11 08:34:49;;;;;;;17.40;10.47;;;;;;;10.26;73.98;101942.38;6117838;23;20310;-62
2021/10/11 08:37:14;;;;;;;14.87;10.40;;;;;;;10.13;73.64;101949.53;6115277;23;20195;-62
2021/10/11 08:39:41;;;;;;;16.63;11.60;;;;;;;10.10;74.13;101942.00;6117147;23;20154;-62
2021/10/11 08:42:07;;;;;;;15.63;11.50;;;;;;;10.10;74.57;101938.44;6117169;23;20438;-62
2021/10/11 08:44:33;;;;;;;20.00;12.57;;;;;;;10.24;74.92;101933.69;6115359;23;20164;-62
2021/10/11 08:47:02;;;;;;;17.87;12.13;;;;;;;10.38;74.66;101939.19;6116695;23;20157;-62
2021/10/11 08:49:29;;;;;;;17.10;12.20;;;;;;;10.43;74.20;101935.22;6114823;23;20599;-62
2021/10/11 08:51:54;;;;;;;18.67;13.43;;;;;;;10.41;74.23;101940.38;6115615;23;20208;-62
2021/10/11 08:54:20;;;;;;;19.60;14.40;;;;;;;10.38;74.41;101919.78;6116216;23;20167;-63
2021/10/11 08:56:45;;;;;;;27.90;21.10;;;;;;;10.69;74.77;101937.50;6117896;23;20621;-62
2021/10/11 08:59:12;;;;;;;23.67;16.20;;;;;;;10.77;74.51;101942.63;6117108;23;20500;-62
2021/10/11 09:01:37;;;;;;;24.03;14.47;;;;;;;10.77;73.91;101934.31;6117857;23;20212;-62
2021/10/11 09:04:18;;;;;;;29.60;15.77;;;;;;;10.73;74.63;101936.31;6116313;23;20166;-63
2021/10/11 09:07:06;;;;;;;18.73;13.73;;;;;;;10.74;72.84;101923.22;6118917;23;20249;-62
2021/10/11 09:09:33;;;;;;;21.33;14.00;;;;;;;10.57;73.44;101891.63;6119602;23;20156;-62
2021/10/11 09:11:59;;;;;;;18.30;12.57;;;;;;;10.73;73.17;101933.56;6119524;23;20261;-60
2021/10/11 09:14:25;;;;;;;18.33;13.43;;;;;;;10.75;73.74;101930.34;6114871;23;20220;-59
2021/10/11 09:17:03;;;;;;;18.33;12.57;;;;;;;10.56;74.26;101931.59;6120066;23;20161;-62
2021/10/11 09:19:39;;;;;;;17.73;12.47;;;;;;;10.75;74.30;101917.28;6119360;23;20455;-60
2021/10/11 09:22:05;;;;;;;17.20;12.40;;;;;;;10.64;73.54;101926.84;6120012;23;20794;-63
2021/10/11 09:24:30;;;;;;;19.23;13.60;;;;;;;10.61;73.86;101924.88;6116774;23;20170;-62
2021/10/11 09:27:01;;;;;;;20.27;14.00;;;;;;;10.51;74.46;101917.38;6117307;23;20221;-63
2021/10/11 09:29:28;;;;;;;20.17;13.77;;;;;;;10.43;74.49;101900.00;6115674;23;20155;-63
2021/10/11 09:31:53;;;;;;;18.57;12.43;;;;;;;10.50;73.98;101919.34;6120635;23;20146;-63
2021/10/11 09:34:21;;;;;;;21.33;13.63;;;;;;;10.59;74.51;101914.19;6119490;23;20502;-63
2021/10/11 09:36:58;;;;;;;20.67;14.23;;;;;;;10.75;75.02;101908.97;6116259;23;20552;-63
2021/10/11 09:39:28;;;;;;;20.90;13.10;;;;;;;10.78;75.02;101908.19;6118798;23;20154;-63
2021/10/11 09:41:54;;;;;;;16.43;12.87;;;;;;;10.76;74.25;101910.53;6119717;23;20605;-62
2021/10/11 09:44:21;;;;;;;18.37;13.40;;;;;;;10.62;74.32;101877.34;6118678;23;20414;-63
2021/10/11 09:46:48;;;;;;;16.37;11.70;;;;;;;10.94;74.38;101902.16;6120041;23;20159;-62
2021/10/11 09:49:14;;;;;;;15.77;11.83;;;;;;;10.80;74.91;101872.50;6118633;23;20488;-62
2021/10/11 09:51:41;;;;;;;16.67;11.10;;;;;;;10.61;74.26;101866.66;6119547;23;20237;-63
2021/10/11 09:54:07;;;;;;;17.40;11.73;;;;;;;10.91;75.02;101900.19;6115178;23;20676;-63
2021/10/11 09:56:36;;;;;;;15.47;10.50;;;;;;;11.09;74.78;101898.09;6120071;23;20217;-63
2021/10/11 09:59:01;;;;;;;15.60;10.43;;;;;;;10.88;74.73;101884.34;6121414;23;20190;-63
2021/10/11 10:01:29;;;;;;;13.57;10.50;;;;;;;10.89;74.60;101875.63;6118413;23;20239;-63
2021/10/11 10:03:56;;;;;;;16.97;10.93;;;;;;;10.66;74.75;101875.34;6120717;23;20644;-65
2021/10/11 10:06:24;;;;;;;16.53;11.03;;;;;;;10.45;75.07;101827.53;6119443;23;20178;-63
2021/10/11 10:08:52;;;;;;;15.80;11.23;;;;;;;10.79;75.29;101872.91;6119418;23;20500;-64
2021/10/11 10:11:20;;;;;;;15.30;11.40;;;;;;;10.54;75.43;101863.91;6119421;23;20154;-64
2021/10/11 10:13:48;;;;;;;15.37;10.40;;;;;;;10.62;75.40;101866.28;6118532;23;20243;-64
2021/10/11 10:16:14;;;;;;;18.23;11.17;;;;;;;10.85;75.26;101879.59;6118250;23;20606;-64
2021/10/11 10:18:44;;;;;;;15.07;10.00;;;;;;;10.91;74.62;101864.16;6117461;23;20194;-64
2021/10/11 10:21:11;;;;;;;15.17;10.57;;;;;;;11.04;75.02;101868.00;6117111;23;20216;-63
2021/10/11 10:23:39;;;;;;;13.70;10.10;;;;;;;11.04;75.20;101857.72;6118471;23;20554;-61
2021/10/11 10:26:09;;;;;;;14.03;10.67;;;;;;;11.07;74.22;101858.88;6115037;23;20661;-61
2021/10/11 10:28:46;;;;;;;15.77;11.27;;;;;;;11.01;73.96;101863.28;6116325;23;20249;-62
2021/10/11 10:31:29;;;;;;;18.80;11.50;;;;;;;11.05;74.27;101853.75;6116147;23;20732;-61
2021/10/11 10:33:54;;;;;;;13.03;9.27;;;;;;;10.91;74.22;101853.06;6117796;23;20712;-63
2021/10/11 10:36:21;;;;;;;16.40;11.10;;;;;;;10.77;74.51;101844.81;6118515;23;20165;-61
2021/10/11 10:39:15;;;;;;;14.97;11.23;;;;;;;10.87;75.57;101852.28;6117231;23;20671;-61
2021/10/11 10:41:43;;;;;;;12.67;9.47;;;;;;;10.89;74.54;101839.59;6108878;23;20185;-60
2021/10/11 10:44:15;;;;;;;15.47;10.17;;;;;;;10.95;75.25;101831.59;6117712;23;20613;-61
2021/10/11 10:46:56;;;;;;;12.67;9.67;;;;;;;10.99;75.59;101830.41;6119313;23;20154;-63
2021/10/11 10:49:29;;;;;;;15.47;9.90;;;;;;;11.12;76.00;101825.94;6118384;23;20154;-62
2021/10/11 10:51:54;;;;;;;13.80;9.83;;;;;;;11.21;75.64;101817.16;6118740;23;20540;-63
2021/10/11 10:54:30;;;;;;;11.93;9.10;;;;;;;11.26;75.26;101814.75;6116565;23;20156;-63
2021/10/11 10:56:56;;;;;;;11.63;9.10;;;;;;;11.30;74.51;101811.94;6118778;23;20181;-63
2021/10/11 10:59:25;;;;;;;14.17;9.27;;;;;;;11.31;74.13;101821.84;6117124;23;20239;-64
2021/10/11 11:02:05;;;;;;;12.97;9.57;;;;;;;11.13;74.33;101818.41;6118461;23;20581;-64
2021/10/11 11:04:31;;;;;;;10.67;8.63;;;;;;;11.31;74.61;101811.53;6114273;23;20615;-63
2021/10/11 11:07:05;;;;;;;10.50;8.83;;;;;;;11.22;74.10;101783.47;6117679;23;20154;-64
2021/10/11 11:09:58;;;;;;;15.07;10.10;;;;;;;11.52;74.20;101805.03;6118483;23;20217;-64
2021/10/11 11:12:33;;;;;;;15.43;9.67;;;;;;;11.49;73.54;101792.75;6114954;23;20528;-64